sensor_id;sensor_type;location;lat;lon;timestamp;pressure;altitude;pressure_sealevel;temperature;humidity
10618;BME280;5356;43.526;26.534;2023-07-30T00:01:55;98785.03;;;22.00;84.40
10618;BME280;5356;43.526;26.534;2023-07-30T00:04:21;98790.44;;;22.00;84.54
10618;BME280;5356;43.526;26.534;2023-07-30T00:06:47;98782.31;;;22.00;84.60
10618;BME280;5356;43.526;26.534;2023-07-30T00:09:12;98782.72;;;21.93;85.09
10618;BME280;5356;43.526;26.534;2023-07-30T00:11:38;98780.72;;;21.85;85.52
10618;BME280;5356;43.526;26.534;2023-07-30T00:14:04;98782.94;;;21.83;85.80
10618;BME280;5356;43.526;26.534;2023-07-30T00:16:29;98789.16;;;21.84;85.80
10618;BME280;5356;43.526;26.534;2023-07-30T00:18:55;98782.25;;;21.78;86.33
10618;BME280;5356;43.526;26.534;2023-07-30T00:21:20;98783.34;;;21.77;86.57
10618;BME280;5356;43.526;26.534;2023-07-30T00:23:45;98780.63;;;21.77;86.50
10618;BME280;5356;43.526;26.534;2023-07-30T00:26:11;98771.69;;;21.76;86.60
10618;BME280;5356;43.526;26.534;2023-07-30T00:28:37;98774.72;;;21.74;86.95
10618;BME280;5356;43.526;26.534;2023-07-30T00:31:02;98773.72;;;21.70;87.00
10618;BME280;5356;43.526;26.534;2023-07-30T00:33:27;98772.13;;;21.69;87.30
10618;BME280;5356;43.526;26.534;2023-07-30T00:35:53;98772.81;;;21.61;87.83
10618;BME280;5356;43.526;26.534;2023-07-30T00:38:19;98777.97;;;21.49;88.92
10618;BME280;5356;43.526;26.534;2023-07-30T00:40:45;98783.75;;;21.42;89.56
10618;BME280;5356;43.526;26.534;2023-07-30T00:43:10;98778.16;;;21.39;89.98
10618;BME280;5356;43.526;26.534;2023-07-30T00:45:36;98787.13;;;21.34;90.60
10618;BME280;5356;43.526;26.534;2023-07-30T00:48:04;98778.41;;;21.23;91.35
10618;BME280;5356;43.526;26.534;2023-07-30T00:50:29;98777.31;;;21.24;91.64
10618;BME280;5356;43.526;26.534;2023-07-30T00:52:55;98780.91;;;21.34;91.26
10618;BME280;5356;43.526;26.534;2023-07-30T00:55:21;98781.53;;;21.30;91.50
10618;BME280;5356;43.526;26.534;2023-07-30T00:57:47;98783.16;;;21.32;91.42
10618;BME280;5356;43.526;26.534;2023-07-30T01:00:13;98783.34;;;21.35;91.08
10618;BME280;5356;43.526;26.534;2023-07-30T01:02:39;98786.34;;;21.34;91.50
10618;BME280;5356;43.526;26.534;2023-07-30T01:05:05;98783.25;;;21.26;92.18
10618;BME280;5356;43.526;26.534;2023-07-30T01:07:31;98776.59;;;21.19;92.20
10618;BME280;5356;43.526;26.534;2023-07-30T01:09:57;98784.00;;;21.13;92.42
10618;BME280;5356;43.526;26.534;2023-07-30T01:12:24;98784.63;;;21.10;93.06
10618;BME280;5356;43.526;26.534;2023-07-30T01:14:52;98785.41;;;21.11;93.18
10618;BME280;5356;43.526;26.534;2023-07-30T01:17:19;98789.31;;;21.04;93.75
10618;BME280;5356;43.526;26.534;2023-07-30T01:19:45;98785.72;;;21.09;93.40
10618;BME280;5356;43.526;26.534;2023-07-30T01:22:10;98782.41;;;21.12;93.35
10618;BME280;5356;43.526;26.534;2023-07-30T01:24:36;98782.19;;;21.08;93.23
10618;BME280;5356;43.526;26.534;2023-07-30T01:27:05;98787.28;;;20.96;94.21
10618;BME280;5356;43.526;26.534;2023-07-30T01:29:51;98787.00;;;20.98;94.27
10618;BME280;5356;43.526;26.534;2023-07-30T01:32:32;98778.47;;;20.91;94.34
10618;BME280;5356;43.526;26.534;2023-07-30T01:34:58;98789.88;;;20.88;94.15
10618;BME280;5356;43.526;26.534;2023-07-30T01:37:25;98783.97;;;20.85;94.67
10618;BME280;5356;43.526;26.534;2023-07-30T01:39:51;98775.13;;;20.80;95.05
10618;BME280;5356;43.526;26.534;2023-07-30T01:42:17;98782.66;;;20.83;94.84
10618;BME280;5356;43.526;26.534;2023-07-30T01:44:43;98777.63;;;20.76;95.69
10618;BME280;5356;43.526;26.534;2023-07-30T01:47:08;98780.41;;;20.71;95.98
10618;BME280;5356;43.526;26.534;2023-07-30T01:49:34;98778.38;;;20.63;96.42
10618;BME280;5356;43.526;26.534;2023-07-30T01:51:59;98779.47;;;20.62;96.26
10618;BME280;5356;43.526;26.534;2023-07-30T01:54:25;98774.88;;;20.62;96.47
10618;BME280;5356;43.526;26.534;2023-07-30T01:56:50;98776.25;;;20.60;96.56
10618;BME280;5356;43.526;26.534;2023-07-30T01:59:16;98770.06;;;20.59;96.82
10618;BME280;5356;43.526;26.534;2023-07-30T02:01:42;98769.31;;;20.54;97.26
10618;BME280;5356;43.526;26.534;2023-07-30T02:04:07;98774.97;;;20.38;98.16
10618;BME280;5356;43.526;26.534;2023-07-30T02:06:33;98770.63;;;20.37;98.16
10618;BME280;5356;43.526;26.534;2023-07-30T02:08:58;98774.97;;;20.38;98.22
10618;BME280;5356;43.526;26.534;2023-07-30T02:11:24;98779.84;;;20.36;98.42
10618;BME280;5356;43.526;26.534;2023-07-30T02:13:49;98775.56;;;20.35;98.59
10618;BME280;5356;43.526;26.534;2023-07-30T02:16:14;98775.63;;;20.30;98.93
10618;BME280;5356;43.526;26.534;2023-07-30T02:18:40;98774.53;;;20.31;99.06
10618;BME280;5356;43.526;26.534;2023-07-30T02:21:05;98774.81;;;20.30;99.45
10618;BME280;5356;43.526;26.534;2023-07-30T02:23:31;98773.41;;;20.32;99.76
10618;BME280;5356;43.526;26.534;2023-07-30T02:25:56;98765.81;;;20.34;100.00
10618;BME280;5356;43.526;26.534;2023-07-30T02:28:22;98772.41;;;20.28;100.00
10618;BME280;5356;43.526;26.534;2023-07-30T02:30:47;98774.38;;;20.23;100.00
10618;BME280;5356;43.526;26.534;2023-07-30T02:33:12;98776.56;;;20.21;100.00
10618;BME280;5356;43.526;26.534;2023-07-30T02:35:38;98781.69;;;20.22;100.00
10618;BME280;5356;43.526;26.534;2023-07-30T02:38:03;98782.03;;;20.15;100.00
10618;BME280;5356;43.526;26.534;2023-07-30T02:40:29;98783.75;;;20.11;100.00
10618;BME280;5356;43.526;26.534;2023-07-30T02:42:54;98780.09;;;20.02;100.00
10618;BME280;5356;43.526;26.534;2023-07-30T02:45:20;98783.06;;;20.01;100.00
10618;BME280;5356;43.526;26.534;2023-07-30T02:47:45;98787.91;;;20.04;100.00
10618;BME280;5356;43.526;26.534;2023-07-30T02:50:10;98784.19;;;20.00;100.00
10618;BME280;5356;43.526;26.534;2023-07-30T02:52:36;98778.97;;;20.03;100.00
10618;BME280;5356;43.526;26.534;2023-07-30T02:55:01;98784.13;;;20.05;100.00
10618;BME280;5356;43.526;26.534;2023-07-30T02:57:27;98777.16;;;19.99;100.00
10618;BME280;5356;43.526;26.534;2023-07-30T02:59:53;98785.84;;;19.95;100.00
10618;BME280;5356;43.526;26.534;2023-07-30T03:02:18;98783.22;;;19.90;100.00
10618;BME280;5356;43.526;26.534;2023-07-30T03:04:44;98779.47;;;19.86;100.00
10618;BME280;5356;43.526;26.534;2023-07-30T03:07:09;98787.38;;;19.83;100.00
10618;BME280;5356;43.526;26.534;2023-07-30T03:09:34;98784.16;;;19.81;100.00
10618;BME280;5356;43.526;26.534;2023-07-30T03:12:00;98784.47;;;19.79;100.00
10618;BME280;5356;43.526;26.534;2023-07-30T03:14:26;98779.53;;;19.81;100.00
10618;BME280;5356;43.526;26.534;2023-07-30T03:16:51;98779.19;;;19.88;100.00
10618;BME280;5356;43.526;26.534;2023-07-30T03:19:17;98788.16;;;19.83;100.00
10618;BME280;5356;43.526;26.534;2023-07-30T03:21:42;98791.69;;;19.84;100.00
10618;BME280;5356;43.526;26.534;2023-07-30T03:24:08;98787.38;;;19.83;100.00
10618;BME280;5356;43.526;26.534;2023-07-30T03:26:34;98786.31;;;19.79;100.00
10618;BME280;5356;43.526;26.534;2023-07-30T03:28:59;98792.47;;;19.84;100.00
10618;BME280;5356;43.526;26.534;2023-07-30T03:31:25;98791.09;;;19.87;100.00
10618;BME280;5356;43.526;26.534;2023-07-30T03:33:51;98783.81;;;19.87;100.00
10618;BME280;5356;43.526;26.534;2023-07-30T03:36:16;98790.81;;;19.88;100.00
10618;BME280;5356;43.526;26.534;2023-07-30T03:38:42;98792.19;;;19.86;100.00
10618;BME280;5356;43.526;26.534;2023-07-30T03:41:08;98787.00;;;19.89;100.00
10618;BME280;5356;43.526;26.534;2023-07-30T03:43:35;98791.25;;;19.95;100.00
10618;BME280;5356;43.526;26.534;2023-07-30T03:46:00;98793.72;;;19.92;100.00
10618;BME280;5356;43.526;26.534;2023-07-30T03:48:26;98792.34;;;19.94;100.00
10618;BME280;5356;43.526;26.534;2023-07-30T03:50:55;98792.06;;;19.96;100.00
10618;BME280;5356;43.526;26.534;2023-07-30T03:53:21;98792.34;;;19.94;100.00
10618;BME280;5356;43.526;26.534;2023-07-30T03:55:47;98793.41;;;19.99;100.00
10618;BME280;5356;43.526;26.534;2023-07-30T03:58:13;98797.91;;;20.03;100.00
10618;BME280;5356;43.526;26.534;2023-07-30T04:00:39;98803.53;;;20.07;100.00
10618;BME280;5356;43.526;26.534;2023-07-30T04:03:04;98804.56;;;20.11;100.00
10618;BME280;5356;43.526;26.534;2023-07-30T04:05:30;98803.69;;;20.15;100.00
10618;BME280;5356;43.526;26.534;2023-07-30T04:07:56;98807.44;;;20.19;100.00
10618;BME280;5356;43.526;26.534;2023-07-30T04:10:22;98812.03;;;20.19;100.00
10618;BME280;5356;43.526;26.534;2023-07-30T04:12:47;98815.47;;;20.25;100.00
10618;BME280;5356;43.526;26.534;2023-07-30T04:15:14;98814.69;;;20.24;100.00
10618;BME280;5356;43.526;26.534;2023-07-30T04:17:39;98822.69;;;20.29;100.00
10618;BME280;5356;43.526;26.534;2023-07-30T04:20:05;98818.25;;;20.38;100.00
10618;BME280;5356;43.526;26.534;2023-07-30T04:22:31;98820.84;;;20.44;100.00
10618;BME280;5356;43.526;26.534;2023-07-30T04:24:56;98819.47;;;20.46;100.00
10618;BME280;5356;43.526;26.534;2023-07-30T04:27:22;98822.28;;;20.60;100.00
10618;BME280;5356;43.526;26.534;2023-07-30T04:29:47;98823.06;;;20.60;100.00
10618;BME280;5356;43.526;26.534;2023-07-30T04:32:13;98821.47;;;20.59;100.00
10618;BME280;5356;43.526;26.534;2023-07-30T04:34:39;98824.84;;;20.70;100.00
10618;BME280;5356;43.526;26.534;2023-07-30T04:37:04;98819.09;;;20.72;100.00
10618;BME280;5356;43.526;26.534;2023-07-30T04:39:31;98818.75;;;20.78;100.00
10618;BME280;5356;43.526;26.534;2023-07-30T04:41:57;98825.88;;;20.88;100.00
10618;BME280;5356;43.526;26.534;2023-07-30T04:44:23;98815.50;;;20.95;100.00
10618;BME280;5356;43.526;26.534;2023-07-30T04:46:48;98820.72;;;21.05;100.00
10618;BME280;5356;43.526;26.534;2023-07-30T04:49:14;98822.81;;;21.08;100.00
10618;BME280;5356;43.526;26.534;2023-07-30T04:51:39;98825.75;;;21.12;100.00
10618;BME280;5356;43.526;26.534;2023-07-30T04:54:04;98814.72;;;21.22;100.00
10618;BME280;5356;43.526;26.534;2023-07-30T04:56:30;98817.25;;;21.33;100.00
10618;BME280;5356;43.526;26.534;2023-07-30T04:58:55;98807.72;;;21.35;100.00
10618;BME280;5356;43.526;26.534;2023-07-30T05:01:21;98808.84;;;21.48;100.00
10618;BME280;5356;43.526;26.534;2023-07-30T05:03:46;98814.59;;;21.60;100.00
10618;BME280;5356;43.526;26.534;2023-07-30T05:06:12;98812.88;;;21.64;100.00
10618;BME280;5356;43.526;26.534;2023-07-30T05:08:37;98815.59;;;21.78;100.00
10618;BME280;5356;43.526;26.534;2023-07-30T05:11:02;98824.31;;;21.89;100.00
10618;BME280;5356;43.526;26.534;2023-07-30T05:13:28;98814.06;;;22.00;100.00
10618;BME280;5356;43.526;26.534;2023-07-30T05:15:53;98813.81;;;22.10;100.00
10618;BME280;5356;43.526;26.534;2023-07-30T05:18:19;98821.69;;;22.25;100.00
10618;BME280;5356;43.526;26.534;2023-07-30T05:20:47;98812.50;;;22.35;100.00
10618;BME280;5356;43.526;26.534;2023-07-30T05:23:14;98820.25;;;22.50;100.00
10618;BME280;5356;43.526;26.534;2023-07-30T05:25:39;98830.72;;;22.57;100.00
10618;BME280;5356;43.526;26.534;2023-07-30T05:28:05;98826.94;;;22.67;100.00
10618;BME280;5356;43.526;26.534;2023-07-30T05:30:30;98825.28;;;22.79;100.00
10618;BME280;5356;43.526;26.534;2023-07-30T05:32:56;98822.19;;;22.95;100.00
10618;BME280;5356;43.526;26.534;2023-07-30T05:35:21;98831.72;;;23.06;100.00
10618;BME280;5356;43.526;26.534;2023-07-30T05:37:47;98832.25;;;23.17;100.00
10618;BME280;5356;43.526;26.534;2023-07-30T05:40:12;98832.94;;;23.22;100.00
10618;BME280;5356;43.526;26.534;2023-07-30T05:42:38;98828.50;;;23.35;100.00
10618;BME280;5356;43.526;26.534;2023-07-30T05:45:03;98827.94;;;23.47;100.00
10618;BME280;5356;43.526;26.534;2023-07-30T05:47:29;98830.34;;;23.57;100.00
10618;BME280;5356;43.526;26.534;2023-07-30T05:49:54;98820.50;;;23.70;100.00
10618;BME280;5356;43.526;26.534;2023-07-30T05:52:20;98822.78;;;23.85;100.00
10618;BME280;5356;43.526;26.534;2023-07-30T05:54:45;98826.53;;;23.98;100.00
10618;BME280;5356;43.526;26.534;2023-07-30T05:57:10;98824.75;;;24.11;100.00
10618;BME280;5356;43.526;26.534;2023-07-30T05:59:36;98823.81;;;24.24;100.00
10618;BME280;5356;43.526;26.534;2023-07-30T06:02:02;98823.50;;;24.34;100.00
10618;BME280;5356;43.526;26.534;2023-07-30T06:04:29;98827.06;;;24.44;100.00
10618;BME280;5356;43.526;26.534;2023-07-30T06:06:54;98825.78;;;24.58;99.87
10618;BME280;5356;43.526;26.534;2023-07-30T06:09:20;98823.53;;;24.69;99.12
10618;BME280;5356;43.526;26.534;2023-07-30T06:11:45;98822.25;;;24.75;98.57
10618;BME280;5356;43.526;26.534;2023-07-30T06:14:10;98822.69;;;24.95;98.41
10618;BME280;5356;43.526;26.534;2023-07-30T06:16:36;98813.50;;;25.08;97.84
10618;BME280;5356;43.526;26.534;2023-07-30T06:19:01;98813.50;;;25.25;97.31
10618;BME280;5356;43.526;26.534;2023-07-30T06:21:27;98813.94;;;25.36;96.09
10618;BME280;5356;43.526;26.534;2023-07-30T06:23:53;98816.00;;;25.48;95.34
10618;BME280;5356;43.526;26.534;2023-07-30T06:26:18;98812.56;;;25.60;94.74
10618;BME280;5356;43.526;26.534;2023-07-30T06:28:44;98807.81;;;25.77;94.27
10618;BME280;5356;43.526;26.534;2023-07-30T06:31:09;98807.25;;;25.93;93.60
10618;BME280;5356;43.526;26.534;2023-07-30T06:33:35;98810.56;;;26.07;92.81
10618;BME280;5356;43.526;26.534;2023-07-30T06:36:00;98819.75;;;26.24;91.89
10618;BME280;5356;43.526;26.534;2023-07-30T06:38:25;98811.94;;;26.34;90.41
10618;BME280;5356;43.526;26.534;2023-07-30T06:40:51;98806.28;;;26.39;88.70
10618;BME280;5356;43.526;26.534;2023-07-30T06:43:17;98808.03;;;26.44;87.48
10618;BME280;5356;43.526;26.534;2023-07-30T06:45:42;98799.44;;;26.54;87.20
10618;BME280;5356;43.526;26.534;2023-07-30T06:48:08;98804.28;;;26.70;86.98
10618;BME280;5356;43.526;26.534;2023-07-30T06:50:33;98800.13;;;26.84;85.92
10618;BME280;5356;43.526;26.534;2023-07-30T06:52:59;98802.56;;;26.98;85.49
10618;BME280;5356;43.526;26.534;2023-07-30T06:55:25;98798.69;;;27.12;84.04
10618;BME280;5356;43.526;26.534;2023-07-30T06:57:51;98801.72;;;27.19;82.67
10618;BME280;5356;43.526;26.534;2023-07-30T07:00:16;98791.72;;;27.35;82.12
10618;BME280;5356;43.526;26.534;2023-07-30T07:02:47;98792.59;;;27.51;82.22
10618;BME280;5356;43.526;26.534;2023-07-30T07:05:13;98787.94;;;27.64;81.82
10618;BME280;5356;43.526;26.534;2023-07-30T07:07:39;98786.00;;;27.77;80.64
10618;BME280;5356;43.526;26.534;2023-07-30T07:10:05;98784.84;;;27.90;77.98
10618;BME280;5356;43.526;26.534;2023-07-30T07:12:30;98781.28;;;28.02;77.85
10618;BME280;5356;43.526;26.534;2023-07-30T07:14:56;98787.31;;;28.20;78.10
10618;BME280;5356;43.526;26.534;2023-07-30T07:17:24;98790.94;;;28.24;76.02
10618;BME280;5356;43.526;26.534;2023-07-30T07:19:49;98787.91;;;28.41;75.06
10618;BME280;5356;43.526;26.534;2023-07-30T07:22:14;98784.47;;;28.57;72.99
10618;BME280;5356;43.526;26.534;2023-07-30T07:24:44;98781.88;;;28.76;71.40
10618;BME280;5356;43.526;26.534;2023-07-30T07:27:10;98783.38;;;28.90;70.48
10618;BME280;5356;43.526;26.534;2023-07-30T07:29:36;98779.44;;;29.03;65.50
10618;BME280;5356;43.526;26.534;2023-07-30T07:32:01;98779.81;;;29.17;64.03
10618;BME280;5356;43.526;26.534;2023-07-30T07:34:27;98777.16;;;29.37;62.21
10618;BME280;5356;43.526;26.534;2023-07-30T07:36:52;98768.19;;;29.56;61.16
10618;BME280;5356;43.526;26.534;2023-07-30T07:39:18;98765.44;;;29.71;61.09
10618;BME280;5356;43.526;26.534;2023-07-30T07:41:44;98763.81;;;29.86;59.35
10618;BME280;5356;43.526;26.534;2023-07-30T07:44:09;98769.09;;;29.95;56.86
10618;BME280;5356;43.526;26.534;2023-07-30T07:46:35;98752.28;;;29.96;54.18
10618;BME280;5356;43.526;26.534;2023-07-30T07:49:00;98757.09;;;30.03;54.03
10618;BME280;5356;43.526;26.534;2023-07-30T07:51:26;98755.38;;;30.14;52.46
10618;BME280;5356;43.526;26.534;2023-07-30T07:53:51;98752.09;;;30.25;51.19
10618;BME280;5356;43.526;26.534;2023-07-30T07:56:17;98744.94;;;30.39;51.74
10618;BME280;5356;43.526;26.534;2023-07-30T07:58:43;98748.69;;;30.51;50.84
10618;BME280;5356;43.526;26.534;2023-07-30T08:01:08;98746.13;;;30.61;49.47
10618;BME280;5356;43.526;26.534;2023-07-30T08:03:34;98741.63;;;30.73;49.02
10618;BME280;5356;43.526;26.534;2023-07-30T08:05:59;98741.56;;;30.89;48.86
10618;BME280;5356;43.526;26.534;2023-07-30T08:08:25;98743.63;;;30.95;47.19
10618;BME280;5356;43.526;26.534;2023-07-30T08:10:51;98738.66;;;31.04;46.68
10618;BME280;5356;43.526;26.534;2023-07-30T08:13:17;98739.47;;;31.05;45.87
10618;BME280;5356;43.526;26.534;2023-07-30T08:15:42;98735.22;;;31.11;46.27
10618;BME280;5356;43.526;26.534;2023-07-30T08:18:08;98745.56;;;31.18;45.86
10618;BME280;5356;43.526;26.534;2023-07-30T08:20:33;98739.44;;;31.28;45.20
10618;BME280;5356;43.526;26.534;2023-07-30T08:22:59;98734.25;;;31.46;44.94
10618;BME280;5356;43.526;26.534;2023-07-30T08:25:24;98736.25;;;31.49;43.59
10618;BME280;5356;43.526;26.534;2023-07-30T08:27:49;98731.19;;;31.51;43.48
10618;BME280;5356;43.526;26.534;2023-07-30T08:30:15;98728.22;;;31.63;43.77
10618;BME280;5356;43.526;26.534;2023-07-30T08:32:40;98726.81;;;31.76;43.72
10618;BME280;5356;43.526;26.534;2023-07-30T08:35:08;98732.84;;;31.86;43.27
10618;BME280;5356;43.526;26.534;2023-07-30T08:37:34;98734.25;;;31.99;42.25
10618;BME280;5356;43.526;26.534;2023-07-30T08:40:00;98722.53;;;32.09;41.68
10618;BME280;5356;43.526;26.534;2023-07-30T08:42:25;98730.84;;;32.13;41.32
10618;BME280;5356;43.526;26.534;2023-07-30T08:44:51;98723.44;;;32.17;41.86
10618;BME280;5356;43.526;26.534;2023-07-30T08:47:16;98722.38;;;32.29;40.89
10618;BME280;5356;43.526;26.534;2023-07-30T08:49:42;98723.13;;;32.26;39.79
10618;BME280;5356;43.526;26.534;2023-07-30T08:52:10;98713.97;;;32.18;39.67
10618;BME280;5356;43.526;26.534;2023-07-30T08:54:37;98715.22;;;32.24;39.49
10618;BME280;5356;43.526;26.534;2023-07-30T08:57:04;98722.81;;;32.01;38.76
10618;BME280;5356;43.526;26.534;2023-07-30T08:59:42;98714.22;;;32.06;38.87
10618;BME280;5356;43.526;26.534;2023-07-30T09:02:18;98718.72;;;32.21;37.91
10618;BME280;5356;43.526;26.534;2023-07-30T09:04:50;98718.03;;;32.28;37.56
10618;BME280;5356;43.526;26.534;2023-07-30T09:07:18;98720.19;;;32.45;37.16
10618;BME280;5356;43.526;26.534;2023-07-30T09:09:44;98720.38;;;32.59;36.65
10618;BME280;5356;43.526;26.534;2023-07-30T09:12:13;98718.81;;;32.62;36.26
10618;BME280;5356;43.526;26.534;2023-07-30T09:14:40;98716.91;;;32.70;36.30
10618;BME280;5356;43.526;26.534;2023-07-30T09:17:05;98718.50;;;32.71;35.42
10618;BME280;5356;43.526;26.534;2023-07-30T09:19:34;98722.97;;;32.82;35.32
10618;BME280;5356;43.526;26.534;2023-07-30T09:22:04;98708.72;;;32.77;35.14
10618;BME280;5356;43.526;26.534;2023-07-30T09:24:30;98703.81;;;33.00;35.67
10618;BME280;5356;43.526;26.534;2023-07-30T09:26:55;98700.72;;;33.09;35.94
10618;BME280;5356;43.526;26.534;2023-07-30T09:29:22;98707.84;;;33.10;34.96
10618;BME280;5356;43.526;26.534;2023-07-30T09:31:52;98705.47;;;33.08;34.86
10618;BME280;5356;43.526;26.534;2023-07-30T09:34:24;98692.13;;;33.18;34.40
10618;BME280;5356;43.526;26.534;2023-07-30T09:36:51;98688.22;;;33.22;34.27
10618;BME280;5356;43.526;26.534;2023-07-30T09:39:20;98691.47;;;33.39;34.63
10618;BME280;5356;43.526;26.534;2023-07-30T09:41:46;98694.00;;;33.58;35.14
10618;BME280;5356;43.526;26.534;2023-07-30T09:44:13;98688.91;;;33.67;34.99
10618;BME280;5356;43.526;26.534;2023-07-30T09:46:46;98686.94;;;33.71;34.27
10618;BME280;5356;43.526;26.534;2023-07-30T09:49:12;98697.22;;;33.71;34.19
10618;BME280;5356;43.526;26.534;2023-07-30T09:51:38;98681.88;;;33.84;34.28
10618;BME280;5356;43.526;26.534;2023-07-30T09:54:06;98679.97;;;33.95;33.77
10618;BME280;5356;43.526;26.534;2023-07-30T09:56:33;98682.72;;;33.99;34.07
10618;BME280;5356;43.526;26.534;2023-07-30T09:58:58;98681.66;;;34.18;33.85
10618;BME280;5356;43.526;26.534;2023-07-30T10:01:26;98681.28;;;34.23;33.36
10618;BME280;5356;43.526;26.534;2023-07-30T10:03:56;98675.38;;;34.32;33.61
10618;BME280;5356;43.526;26.534;2023-07-30T10:06:27;98676.94;;;34.33;32.69
10618;BME280;5356;43.526;26.534;2023-07-30T10:09:00;98669.44;;;34.30;33.08
10618;BME280;5356;43.526;26.534;2023-07-30T10:11:29;98669.47;;;34.51;33.21
10618;BME280;5356;43.526;26.534;2023-07-30T10:13:55;98663.94;;;34.51;32.98
10618;BME280;5356;43.526;26.534;2023-07-30T10:16:29;98663.19;;;34.69;33.06
10618;BME280;5356;43.526;26.534;2023-07-30T10:18:57;98662.00;;;34.73;32.78
10618;BME280;5356;43.526;26.534;2023-07-30T10:21:25;98658.84;;;34.78;32.39
10618;BME280;5356;43.526;26.534;2023-07-30T10:24:04;98655.28;;;34.85;32.46
10618;BME280;5356;43.526;26.534;2023-07-30T10:26:31;98646.97;;;34.81;32.10
10618;BME280;5356;43.526;26.534;2023-07-30T10:31:43;98641.44;;;34.85;32.32
10618;BME280;5356;43.526;26.534;2023-07-30T10:34:10;98635.09;;;34.95;31.76
10618;BME280;5356;43.526;26.534;2023-07-30T10:36:52;98645.00;;;35.00;31.75
10618;BME280;5356;43.526;26.534;2023-07-30T10:39:27;98635.13;;;34.74;32.04
10618;BME280;5356;43.526;26.534;2023-07-30T10:41:55;98632.72;;;34.54;32.09
10618;BME280;5356;43.526;26.534;2023-07-30T10:44:25;98630.31;;;34.42;32.02
10618;BME280;5356;43.526;26.534;2023-07-30T10:46:55;98628.31;;;34.25;32.04
10618;BME280;5356;43.526;26.534;2023-07-30T10:49:21;98619.59;;;34.08;32.46
10618;BME280;5356;43.526;26.534;2023-07-30T10:51:47;98616.38;;;33.99;32.71
10618;BME280;5356;43.526;26.534;2023-07-30T10:54:12;98626.25;;;33.93;32.88
10618;BME280;5356;43.526;26.534;2023-07-30T10:56:38;98613.59;;;33.88;33.18
10618;BME280;5356;43.526;26.534;2023-07-30T10:59:05;98623.81;;;33.77;33.00
10618;BME280;5356;43.526;26.534;2023-07-30T11:01:38;98612.00;;;33.84;32.89
10618;BME280;5356;43.526;26.534;2023-07-30T11:04:20;98613.69;;;34.13;32.78
10618;BME280;5356;43.526;26.534;2023-07-30T11:06:50;98608.19;;;34.20;32.43
10618;BME280;5356;43.526;26.534;2023-07-30T11:09:19;98609.78;;;34.29;32.32
10618;BME280;5356;43.526;26.534;2023-07-30T11:11:46;98603.50;;;34.60;32.41
10618;BME280;5356;43.526;26.534;2023-07-30T11:14:19;98605.03;;;34.90;31.89
10618;BME280;5356;43.526;26.534;2023-07-30T11:16:49;98601.09;;;35.13;31.72
10618;BME280;5356;43.526;26.534;2023-07-30T11:19:15;98608.59;;;35.23;31.40
10618;BME280;5356;43.526;26.534;2023-07-30T11:21:47;98601.00;;;35.41;31.34
10618;BME280;5356;43.526;26.534;2023-07-30T11:24:13;98597.00;;;35.67;31.72
10618;BME280;5356;43.526;26.534;2023-07-30T11:26:39;98598.06;;;35.88;31.54
10618;BME280;5356;43.526;26.534;2023-07-30T11:29:20;98589.78;;;35.84;30.98
10618;BME280;5356;43.526;26.534;2023-07-30T11:31:46;98584.22;;;35.84;30.63
10618;BME280;5356;43.526;26.534;2023-07-30T11:34:13;98585.72;;;36.00;30.63
10618;BME280;5356;43.526;26.534;2023-07-30T11:36:42;98584.09;;;36.09;30.69
10618;BME280;5356;43.526;26.534;2023-07-30T11:39:09;98574.63;;;36.07;30.33
10618;BME280;5356;43.526;26.534;2023-07-30T11:41:35;98581.63;;;36.22;30.49
10618;BME280;5356;43.526;26.534;2023-07-30T11:44:01;98584.59;;;36.53;30.95
10618;BME280;5356;43.526;26.534;2023-07-30T11:46:27;98582.97;;;36.59;30.55
10618;BME280;5356;43.526;26.534;2023-07-30T11:48:54;98582.97;;;36.52;30.27
10618;BME280;5356;43.526;26.534;2023-07-30T11:51:35;98572.63;;;36.59;30.25
10618;BME280;5356;43.526;26.534;2023-07-30T11:54:00;98568.94;;;36.73;30.14
10618;BME280;5356;43.526;26.534;2023-07-30T11:56:36;98557.41;;;36.78;29.87
10618;BME280;5356;43.526;26.534;2023-07-30T11:59:05;98557.03;;;36.76;29.74
10618;BME280;5356;43.526;26.534;2023-07-30T12:01:33;98558.19;;;36.79;29.60
10618;BME280;5356;43.526;26.534;2023-07-30T12:04:01;98551.28;;;36.94;29.50
10618;BME280;5356;43.526;26.534;2023-07-30T12:06:46;98555.19;;;37.00;29.41
10618;BME280;5356;43.526;26.534;2023-07-30T12:09:20;98555.47;;;37.13;29.18
10618;BME280;5356;43.526;26.534;2023-07-30T12:11:51;98547.59;;;37.08;28.93
10618;BME280;5356;43.526;26.534;2023-07-30T12:14:17;98551.03;;;37.19;29.08
10618;BME280;5356;43.526;26.534;2023-07-30T12:16:43;98542.94;;;36.94;29.05
10618;BME280;5356;43.526;26.534;2023-07-30T12:19:09;98543.28;;;37.00;28.90
10618;BME280;5356;43.526;26.534;2023-07-30T12:21:34;98542.88;;;36.63;28.88
10618;BME280;5356;43.526;26.534;2023-07-30T12:23:59;98545.47;;;36.36;29.08
10618;BME280;5356;43.526;26.534;2023-07-30T12:26:25;98539.63;;;36.20;29.26
10618;BME280;5356;43.526;26.534;2023-07-30T12:28:50;98534.75;;;36.38;29.22
10618;BME280;5356;43.526;26.534;2023-07-30T12:31:16;98529.94;;;36.42;29.02
10618;BME280;5356;43.526;26.534;2023-07-30T12:33:43;98528.91;;;36.71;29.24
10618;BME280;5356;43.526;26.534;2023-07-30T12:36:08;98522.88;;;36.79;28.60
10618;BME280;5356;43.526;26.534;2023-07-30T12:38:34;98510.53;;;36.84;28.90
10618;BME280;5356;43.526;26.534;2023-07-30T12:41:00;98514.78;;;36.54;28.60
10618;BME280;5356;43.526;26.534;2023-07-30T12:43:25;98508.16;;;36.41;28.99
10618;BME280;5356;43.526;26.534;2023-07-30T12:45:51;98513.03;;;36.26;29.00
10618;BME280;5356;43.526;26.534;2023-07-30T12:48:16;98502.50;;;36.03;28.93
10618;BME280;5356;43.526;26.534;2023-07-30T12:50:41;98500.44;;;35.59;29.41
10618;BME280;5356;43.526;26.534;2023-07-30T12:53:07;98498.41;;;35.63;29.61
10618;BME280;5356;43.526;26.534;2023-07-30T12:55:32;98500.22;;;35.91;29.20
10618;BME280;5356;43.526;26.534;2023-07-30T12:57:58;98495.22;;;36.27;29.16